< Typhoon 201818 2018 Season Typhoon 201820 >
Typhoon 201819 (SOULIK)
General InformationTrack Information on Google MapsDetailed Wind InformationForecast History on Google MapsAccess Analytics MapList of All Images || NewsDisaster Info.WeblogTrackbackTyphoon FrontTwiphoonTyphoon Now!Typhoon ImaginationJMA Disaster Info. XMLResourceGoogle EarthGE AnimationAtom FeedGeoJSON
Detalied Best Track (Time Zone = UTC)
Year Month Day Hour Lat. Long. Pressure (hPa) Wind (kt) Class Image Chart
2018 8 15 06 11.7 144.7 1000 0 2 Image Chart
2018 8 15 12 12.8 144.1 1002 0 2 Image Chart
2018 8 15 18 14.1 143.5 1000 0 2 Image Chart
2018 8 16 00 15.6 143.0 998 35 3 Image Chart
2018 8 16 06 17.3 142.3 998 35 3 Image Chart
2018 8 16 12 18.9 141.7 994 40 3 Image Chart
2018 8 16 18 20.0 141.4 990 45 3 Image Chart
2018 8 17 00 21.4 141.0 985 50 4 Image Chart
2018 8 17 06 23.0 140.5 980 55 4 Image Chart
2018 8 17 12 23.8 140.2 970 65 5 Image Chart
2018 8 17 18 24.4 140.1 965 70 5 Image Chart
2018 8 18 00 24.6 140.1 960 75 5 Image Chart
2018 8 18 06 24.8 140.0 955 80 5 Image Chart
2018 8 18 12 24.9 139.9 955 80 5 Image Chart
2018 8 18 18 25.0 139.6 955 80 5 Image Chart
2018 8 19 00 25.1 139.0 955 80 5 Image Chart
2018 8 19 06 25.2 138.6 955 80 5 Image Chart
2018 8 19 12 25.4 137.9 960 75 5 Image Chart
2018 8 19 18 25.6 137.1 965 70 5 Image Chart
2018 8 20 00 25.8 136.4 960 75 5 Image Chart
2018 8 20 06 26.1 135.5 955 80 5 Image Chart
2018 8 20 12 26.4 134.5 955 80 5 Image Chart
2018 8 20 15 26.7 134.0 955 80 5 Image Chart
2018 8 20 18 27.0 133.3 950 85 5 Image Chart
2018 8 20 21 27.4 132.7 950 85 5 Image Chart
2018 8 21 00 27.7 132.1 950 85 5 Image Chart
2018 8 21 03 28.0 131.6 950 85 5 Image Chart
2018 8 21 06 28.3 130.9 950 85 5 Image Chart
2018 8 21 09 28.8 130.4 950 85 5 Image Chart
2018 8 21 12 28.9 129.8 950 85 5 Image Chart
2018 8 21 15 29.4 129.3 950 85 5 Image Chart
2018 8 21 18 29.7 128.7 950 85 5 Image Chart
2018 8 21 21 30.1 128.2 950 85 5 Image Chart
2018 8 22 00 30.4 127.6 950 85 5 Image Chart
2018 8 22 03 30.7 127.2 950 85 5 Image Chart
2018 8 22 06 31.2 126.8 955 80 5 Image Chart
2018 8 22 09 31.6 126.5 955 80 5 Image Chart
2018 8 22 12 31.9 126.2 960 75 5 Image Chart
2018 8 22 18 32.6 125.7 965 70 5 Image Chart
2018 8 23 00 33.0 125.5 965 70 5 Image Chart
2018 8 23 06 33.6 125.7 970 65 5 Image Chart
2018 8 23 12 34.3 126.1 975 60 4 Image Chart
2018 8 23 18 35.7 127.3 985 45 3 Image Chart
2018 8 24 00 37.5 128.9 985 45 3 Image Chart
2018 8 24 06 38.9 130.4 985 45 3 Image Chart
2018 8 24 12 40.1 132.0 990 40 3 Image Chart
2018 8 24 18 41.1 133.9 992 0 6 Image Chart
2018 8 25 00 42.1 135.5 996 0 6 Image Chart
2018 8 25 06 42.7 136.6 998 0 6 Image Chart
2018 8 25 12 43.5 138.6 1002 0 6 Image Chart
2018 8 25 18 44.2 140.8 1002 0 6 Image Chart
2018 8 26 00 44.5 142.4 1004 0 6 Image Chart
2018 8 26 06 43.9 144.4 1004 0 6 Image Chart
2018 8 26 12 43.1 147.8 1004 0 6 Image Chart
2018 8 26 18 42.8 151.5 1002 0 6 Image Chart
2018 8 27 00 42.6 154.6 1002 0 6 Image Chart
2018 8 27 06 43.5 157.4 1000 0 6 Image Chart
2018 8 27 12 43.4 160.0 998 0 6 Image Chart
2018 8 27 18 43.5 162.2 992 0 6 Image Chart
2018 8 28 00 44.0 165.5 992 0 6 Image Chart
2018 8 28 06 44.6 167.8 992 0 6 Image Chart
2018 8 28 12 45.8 171.3 994 0 6 Image Chart
2018 8 28 18 47.9 174.8 994 0 6 Image Chart
2018 8 29 00 51.7 178.1 994 0 6 Image Chart
2018 8 29 06 54.6 178.7 990 0 6 Image Chart
2018 8 29 12 56.5 178.5 990 0 6 Image Chart
2018 8 29 18 57.4 178.9 988 0 6 Image Chart
2018 8 30 00 58.1 179.4 988 0 6 Image Chart
2018 8 30 06 58.7 181.8 992 0 6 Image Chart
Japan Meteorological Agency Best Track Data | Correction Date : 2018-10-05
< Typhoon 201818 2018 Season Typhoon 201820 >

Help